Time;durP1;ratioP1;P1;durP2;ratioP2;P2;SDS_P1;SDS_P2;PMS_P1;PMS_P2;Temp;Humidity;BMP_temperature;BMP_pressure;BME280_temperature;BME280_humidity;BME280_pressure;Samples;Min_cycle;Max_cycle;Signal;HPM_P1;HPM_P2
2023/08/24 00:01:33;;;;;;;0.00;0.00;;;17.30;82.40;;;;;;5048242;28;20437;-69
2023/08/24 00:03:59;;;;;;;0.00;0.00;;;17.30;82.40;;;;;;5048384;28;20130;-68
2023/08/24 00:06:24;;;;;;;0.00;0.00;;;17.30;82.30;;;;;;5049575;28;20037;-68
2023/08/24 00:08:50;;;;;;;0.00;0.00;;;17.30;82.20;;;;;;5047656;28;20451;-68
2023/08/24 00:11:16;;;;;;;0.00;0.00;;;17.30;82.10;;;;;;5048839;28;20037;-68
2023/08/24 00:13:48;;;;;;;0.00;0.00;;;17.30;82.00;;;;;;5048991;28;20068;-67
2023/08/24 00:16:15;;;;;;;0.00;0.00;;;17.30;82.10;;;;;;5048030;28;20068;-68
2023/08/24 00:18:41;;;;;;;0.00;0.00;;;17.30;82.20;;;;;;5048400;28;20070;-68
2023/08/24 00:21:07;;;;;;;0.00;0.00;;;17.30;82.40;;;;;;5047789;28;20127;-68
2023/08/24 00:23:33;;;;;;;0.00;0.00;;;17.30;82.40;;;;;;5049078;28;20120;-68
2023/08/24 00:25:59;;;;;;;0.00;0.00;;;17.30;82.20;;;;;;5049136;28;20627;-68
2023/08/24 00:28:25;;;;;;;0.00;0.00;;;17.30;82.40;;;;;;5044937;28;20481;-68
2023/08/24 00:30:51;;;;;;;0.00;0.00;;;17.30;82.30;;;;;;5027444;28;20049;-69
2023/08/24 00:33:17;;;;;;;0.00;0.00;;;17.30;82.60;;;;;;5030557;28;20387;-68
2023/08/24 00:35:42;;;;;;;0.00;0.00;;;17.30;82.50;;;;;;5047706;28;20098;-68
2023/08/24 00:38:08;;;;;;;0.00;0.00;;;17.30;82.80;;;;;;5047524;28;20044;-68
2023/08/24 00:40:34;;;;;;;0.00;0.00;;;17.40;83.20;;;;;;5019177;28;20053;-68
2023/08/24 00:43:00;;;;;;;0.00;0.00;;;17.30;83.20;;;;;;5039969;28;20081;-68
2023/08/24 00:45:25;;;;;;;0.00;0.00;;;17.40;83.10;;;;;;5027793;28;20158;-68
2023/08/24 00:47:52;;;;;;;0.00;0.00;;;17.40;82.90;;;;;;5047149;28;20060;-68
2023/08/24 00:50:18;;;;;;;0.00;0.00;;;17.40;82.90;;;;;;5047533;28;20575;-68
2023/08/24 00:52:44;;;;;;;0.00;0.00;;;17.40;82.90;;;;;;5052816;28;20048;-68
2023/08/24 00:55:10;;;;;;;0.00;0.00;;;17.40;82.90;;;;;;5045717;28;20080;-68
2023/08/24 00:57:37;;;;;;;0.00;0.00;;;17.40;82.80;;;;;;5044639;28;20527;-69
2023/08/24 01:00:05;;;;;;;0.00;0.00;;;17.40;82.80;;;;;;5051219;28;20112;-68
2023/08/24 01:02:32;;;;;;;0.00;0.00;;;17.40;82.80;;;;;;5032598;28;20115;-68
2023/08/24 01:04:58;;;;;;;0.00;0.00;;;17.50;83.10;;;;;;5050830;28;20056;-69
2023/08/24 01:07:25;;;;;;;0.00;0.00;;;17.50;83.10;;;;;;5053214;28;20049;-68
2023/08/24 01:09:51;;;;;;;0.00;0.00;;;17.50;83.10;;;;;;5053170;28;20600;-68
2023/08/24 01:12:26;;;;;;;0.00;0.00;;;17.50;83.00;;;;;;5052197;28;20045;-68
2023/08/24 01:15:12;;;;;;;0.00;0.00;;;17.50;83.00;;;;;;5033083;28;20057;-68
2023/08/24 01:17:39;;;;;;;0.00;0.00;;;17.50;83.10;;;;;;5049849;28;20506;-68
2023/08/24 01:20:06;;;;;;;0.00;0.00;;;17.50;83.20;;;;;;5051196;28;20474;-68
2023/08/24 01:22:41;;;;;;;0.00;0.00;;;17.50;83.20;;;;;;5052107;28;20199;-68
2023/08/24 01:25:12;;;;;;;0.00;0.00;;;17.50;83.40;;;;;;5052660;28;20045;-68
2023/08/24 01:27:38;;;;;;;0.00;0.00;;;17.60;83.50;;;;;;5052690;28;20048;-68
2023/08/24 01:30:05;;;;;;;0.00;0.00;;;17.50;83.50;;;;;;5052334;28;20052;-69
2023/08/24 01:32:32;;;;;;;0.00;0.00;;;17.50;83.40;;;;;;5052520;28;20037;-68
2023/08/24 01:34:59;;;;;;;0.00;0.00;;;17.50;83.30;;;;;;5051358;28;20048;-68
2023/08/24 01:37:26;;;;;;;0.00;0.00;;;17.50;83.40;;;;;;5036724;28;20049;-68
2023/08/24 01:40:16;;;;;;;0.00;0.00;;;17.50;83.50;;;;;;5013383;28;20079;-68
2023/08/24 01:43:02;;;;;;;0.00;0.00;;;17.50;83.40;;;;;;5047099;28;20125;-68
2023/08/24 01:45:30;;;;;;;0.00;0.00;;;17.50;83.40;;;;;;5049218;28;20044;-68
2023/08/24 01:47:56;;;;;;;0.00;0.00;;;17.50;83.40;;;;;;5049730;28;20048;-69
2023/08/24 01:50:22;;;;;;;0.00;0.00;;;17.50;83.40;;;;;;5049085;28;20045;-68
2023/08/24 01:52:48;;;;;;;0.00;0.00;;;17.40;83.30;;;;;;5048568;28;20045;-68
2023/08/24 01:55:17;;;;;;;0.00;0.00;;;17.40;83.10;;;;;;5050076;28;20043;-69
2023/08/24 01:57:42;;;;;;;0.00;0.00;;;17.50;83.10;;;;;;5049853;28;20049;-68
2023/08/24 02:00:09;;;;;;;0.00;0.00;;;17.40;82.90;;;;;;5048788;28;20044;-68
2023/08/24 02:02:35;;;;;;;0.00;0.00;;;17.30;83.00;;;;;;5050003;28;20057;-68
2023/08/24 02:05:02;;;;;;;0.00;0.00;;;17.30;83.10;;;;;;5016320;28;20103;-68
2023/08/24 02:07:28;;;;;;;0.00;0.00;;;17.20;82.90;;;;;;5049876;28;20123;-68
2023/08/24 02:09:53;;;;;;;0.00;0.00;;;17.10;82.80;;;;;;5048284;28;20459;-68
2023/08/24 02:12:19;;;;;;;0.00;0.00;;;17.10;82.80;;;;;;5048291;28;20128;-68
2023/08/24 02:14:44;;;;;;;0.00;0.00;;;17.10;82.80;;;;;;5049844;28;20049;-68
2023/08/24 02:17:10;;;;;;;0.00;0.00;;;17.00;83.20;;;;;;5049553;28;20076;-68
2023/08/24 02:19:36;;;;;;;0.00;0.00;;;17.00;83.20;;;;;;5044871;28;20811;-69
2023/08/24 02:22:01;;;;;;;0.00;0.00;;;16.90;83.30;;;;;;5049452;28;20044;-68
2023/08/24 02:24:27;;;;;;;0.00;0.00;;;17.00;83.40;;;;;;5049804;28;20523;-68
2023/08/24 02:26:52;;;;;;;0.00;0.00;;;17.00;83.40;;;;;;5049260;28;20099;-68
2023/08/24 02:29:18;;;;;;;0.00;0.00;;;16.90;83.30;;;;;;5049207;28;20064;-68
2023/08/24 02:31:43;;;;;;;0.00;0.00;;;17.00;83.30;;;;;;5048279;28;20052;-68
2023/08/24 02:34:09;;;;;;;0.00;0.00;;;17.00;83.10;;;;;;5047800;28;20547;-68
2023/08/24 02:36:35;;;;;;;0.00;0.00;;;17.00;83.20;;;;;;5049030;28;20436;-68
2023/08/24 02:39:01;;;;;;;0.00;0.00;;;16.90;83.10;;;;;;5048873;28;20055;-68
2023/08/24 02:41:27;;;;;;;0.00;0.00;;;16.90;83.20;;;;;;5047913;28;20060;-68
2023/08/24 02:43:52;;;;;;;0.00;0.00;;;16.90;83.20;;;;;;5030068;28;20055;-68
2023/08/24 02:46:18;;;;;;;0.00;0.00;;;16.90;83.30;;;;;;5030317;28;20476;-68
2023/08/24 02:48:44;;;;;;;0.00;0.00;;;16.90;83.10;;;;;;5029153;28;20482;-68
2023/08/24 02:51:10;;;;;;;0.00;0.00;;;16.90;83.20;;;;;;5030524;28;20041;-68
2023/08/24 02:53:37;;;;;;;0.10;0.10;;;16.90;83.30;;;;;;5030125;28;20476;-68
2023/08/24 02:56:03;;;;;;;0.00;0.00;;;16.90;83.20;;;;;;5012332;28;20132;-68
2023/08/24 02:58:29;;;;;;;0.00;0.00;;;16.80;83.20;;;;;;5029861;28;20136;-68
2023/08/24 03:00:55;;;;;;;0.00;0.00;;;16.80;83.20;;;;;;5028914;28;20041;-68
2023/08/24 03:03:21;;;;;;;0.00;0.00;;;16.80;83.20;;;;;;5030097;28;20049;-68
2023/08/24 03:05:58;;;;;;;0.00;0.00;;;16.80;83.10;;;;;;5029107;28;20065;-68
2023/08/24 03:08:24;;;;;;;0.00;0.00;;;16.80;83.10;;;;;;5044698;28;20044;-68
2023/08/24 03:10:50;;;;;;;0.00;0.00;;;16.70;83.20;;;;;;5047708;28;20041;-68
2023/08/24 03:13:16;;;;;;;0.00;0.00;;;16.70;83.20;;;;;;5047145;28;20237;-68
2023/08/24 03:15:41;;;;;;;0.00;0.00;;;16.80;83.30;;;;;;5047184;28;20041;-68
2023/08/24 03:18:07;;;;;;;0.00;0.00;;;16.80;83.30;;;;;;5045749;28;20103;-68
2023/08/24 03:20:33;;;;;;;0.00;0.00;;;16.80;83.20;;;;;;5028535;28;20156;-69
2023/08/24 03:22:58;;;;;;;0.00;0.00;;;16.80;83.20;;;;;;5029063;28;20140;-68
2023/08/24 03:25:24;;;;;;;0.00;0.00;;;16.70;83.20;;;;;;5029574;28;20079;-68
2023/08/24 03:27:50;;;;;;;0.00;0.00;;;16.70;83.20;;;;;;5046791;28;20076;-68
2023/08/24 03:30:16;;;;;;;0.00;0.00;;;16.70;83.40;;;;;;5046773;28;20076;-68
2023/08/24 03:32:41;;;;;;;0.00;0.00;;;16.70;83.50;;;;;;5046976;28;20129;-68
2023/08/24 03:35:08;;;;;;;0.00;0.00;;;16.80;83.50;;;;;;5046179;28;20040;-68
2023/08/24 03:37:33;;;;;;;0.00;0.00;;;16.80;83.50;;;;;;5046603;28;20516;-68
2023/08/24 03:39:59;;;;;;;0.00;0.00;;;16.80;83.60;;;;;;5047828;28;20049;-68
2023/08/24 03:42:24;;;;;;;0.00;0.00;;;16.70;83.70;;;;;;5047806;28;20114;-68
2023/08/24 03:44:50;;;;;;;0.00;0.00;;;16.80;83.90;;;;;;5046588;28;20198;-69
2023/08/24 03:47:16;;;;;;;0.00;0.00;;;16.80;83.80;;;;;;5046223;28;20041;-68
2023/08/24 03:49:43;;;;;;;0.00;0.00;;;16.80;83.90;;;;;;5048070;28;20432;-68
2023/08/24 03:52:08;;;;;;;0.00;0.00;;;16.70;83.80;;;;;;5047769;28;20048;-68
2023/08/24 03:54:34;;;;;;;0.00;0.00;;;16.80;83.80;;;;;;5046701;28;20040;-68
2023/08/24 03:57:00;;;;;;;0.00;0.00;;;16.70;83.60;;;;;;5045971;28;20040;-68
2023/08/24 03:59:26;;;;;;;0.00;0.00;;;16.70;83.50;;;;;;5047777;28;20045;-68
2023/08/24 04:01:53;;;;;;;0.00;0.00;;;16.70;83.50;;;;;;5030617;28;20063;-68
2023/08/24 04:04:18;;;;;;;0.00;0.00;;;16.70;83.50;;;;;;5027814;28;20382;-68
2023/08/24 04:06:44;;;;;;;0.00;0.00;;;16.70;83.50;;;;;;5028319;28;20040;-68
2023/08/24 04:09:10;;;;;;;0.00;0.00;;;16.70;83.60;;;;;;5027734;28;20120;-68
2023/08/24 04:11:36;;;;;;;0.00;0.00;;;16.70;83.60;;;;;;5029125;28;20053;-68
2023/08/24 04:14:01;;;;;;;0.00;0.00;;;16.80;83.70;;;;;;5027419;28;20037;-68
2023/08/24 04:16:27;;;;;;;0.00;0.00;;;16.70;83.70;;;;;;5028514;28;20138;-68
2023/08/24 04:18:52;;;;;;;0.00;0.00;;;16.70;83.90;;;;;;5028565;28;20466;-68
2023/08/24 04:21:18;;;;;;;0.00;0.00;;;16.70;83.90;;;;;;5027825;28;20046;-68
2023/08/24 04:23:45;;;;;;;0.00;0.00;;;16.70;83.90;;;;;;5028495;28;20037;-68
2023/08/24 04:26:13;;;;;;;0.10;0.10;;;16.70;83.90;;;;;;5033501;28;20140;-68
2023/08/24 04:28:39;;;;;;;0.00;0.00;;;16.70;84.00;;;;;;5047356;28;20041;-69
2023/08/24 04:31:05;;;;;;;0.00;0.00;;;16.70;84.00;;;;;;5045869;28;20110;-68
2023/08/24 04:33:31;;;;;;;0.00;0.00;;;16.70;84.10;;;;;;5047303;28;20485;-68
2023/08/24 04:36:03;;;;;;;0.00;0.00;;;16.70;84.00;;;;;;5046753;28;20053;-68
2023/08/24 04:38:29;;;;;;;0.00;0.00;;;16.70;84.00;;;;;;5044125;28;20094;-68
2023/08/24 04:41:15;;;;;;;0.00;0.00;;;16.70;84.10;;;;;;5024783;28;20057;-68
2023/08/24 04:43:56;;;;;;;0.00;0.00;;;16.70;84.20;;;;;;5023771;28;20053;-68
2023/08/24 04:46:21;;;;;;;0.00;0.00;;;16.70;84.00;;;;;;5024878;28;20045;-68
2023/08/24 04:48:52;;;;;;;0.00;0.00;;;16.70;84.00;;;;;;5023286;28;20128;-69
2023/08/24 04:51:27;;;;;;;0.00;0.00;;;16.70;84.00;;;;;;5024282;28;20053;-69
2023/08/24 04:54:38;;;;;;;0.00;0.00;;;16.70;84.00;;;;;;5024615;28;20042;-68
2023/08/24 04:57:09;;;;;;;0.00;0.00;;;16.60;83.90;;;;;;4964426;28;20071;-68
2023/08/24 04:59:35;;;;;;;;;;;16.60;83.90;;;;;;4949341;28;20047;-68
2023/08/24 05:02:19;;;;;;;0.00;0.00;;;16.60;83.90;;;;;;5011884;28;20575;-68
2023/08/24 05:04:51;;;;;;;0.00;0.00;;;16.60;83.80;;;;;;5043237;28;20037;-68
2023/08/24 05:07:17;;;;;;;;;;;16.60;83.80;;;;;;5043685;28;20455;-68
2023/08/24 05:09:49;;;;;;;0.00;0.00;;;16.60;83.90;;;;;;5025328;28;20393;-68
2023/08/24 05:15:23;;;;;;;0.00;0.00;;;16.60;84.00;;;;;;5003252;28;20391;-68
2023/08/24 05:17:54;;;;;;;0.00;0.00;;;16.60;84.10;;;;;;4985162;28;20089;-68
2023/08/24 05:23:08;;;;;;;0.00;0.00;;;16.60;83.90;;;;;;5027024;28;20053;-68
2023/08/24 05:25:52;;;;;;;0.00;0.00;;;16.60;84.00;;;;;;5027418;28;20100;-68
2023/08/24 05:28:21;;;;;;;0.00;0.00;;;16.60;84.10;;;;;;5034485;28;20623;-68
2023/08/24 05:30:53;;;;;;;0.00;0.00;;;16.60;84.10;;;;;;5026642;28;20045;-68
2023/08/24 05:36:31;;;;;;;;;;;16.60;84.10;;;;;;5038828;28;20136;-68
2023/08/24 05:38:59;;;;;;;0.00;0.00;;;16.60;84.50;;;;;;5029764;28;20433;-69
2023/08/24 05:42:25;;;;;;;0.00;0.00;;;16.60;84.40;;;;;;5030510;28;20502;-68
2023/08/24 05:44:50;;;;;;;0.00;0.00;;;16.70;84.30;;;;;;5034771;28;20049;-68
2023/08/24 05:47:16;;;;;;;0.00;0.00;;;16.80;84.20;;;;;;5050834;28;20561;-68
2023/08/24 05:49:51;;;;;;;0.00;0.00;;;16.80;84.40;;;;;;5041967;28;20041;-68
2023/08/24 05:52:16;;;;;;;0.00;0.00;;;16.80;84.30;;;;;;5036505;28;20127;-68
2023/08/24 05:54:42;;;;;;;0.00;0.00;;;16.80;84.50;;;;;;5051578;28;20644;-69
2023/08/24 05:57:07;;;;;;;0.00;0.00;;;16.90;84.50;;;;;;5043630;28;20037;-69
2023/08/24 05:59:33;;;;;;;0.00;0.00;;;16.90;84.60;;;;;;5031276;28;20068;-67
2023/08/24 06:01:59;;;;;;;0.00;0.00;;;17.00;84.70;;;;;;5031672;28;20492;-69
2023/08/24 06:04:24;;;;;;;0.00;0.00;;;17.00;84.80;;;;;;5031550;28;20033;-68
2023/08/24 06:06:53;;;;;;;0.00;0.00;;;17.10;84.70;;;;;;5031601;28;20049;-68
2023/08/24 06:09:19;;;;;;;0.00;0.00;;;17.10;84.60;;;;;;5038301;28;20052;-68
2023/08/24 06:11:54;;;;;;;0.00;0.00;;;17.20;84.70;;;;;;5049420;28;20416;-68
2023/08/24 06:14:44;;;;;;;0.00;0.00;;;17.30;84.70;;;;;;5051122;28;20032;-69
2023/08/24 06:17:28;;;;;;;0.00;0.00;;;17.30;84.80;;;;;;5040549;28;20139;-69
2023/08/24 06:19:56;;;;;;;0.00;0.00;;;17.40;84.80;;;;;;5033383;28;20095;-70
2023/08/24 06:22:41;;;;;;;0.00;0.00;;;17.50;84.80;;;;;;5034920;28;20053;-68
2023/08/24 06:25:24;;;;;;;0.00;0.00;;;17.50;84.70;;;;;;5038404;28;20041;-68
2023/08/24 06:27:50;;;;;;;0.00;0.00;;;17.50;84.60;;;;;;5046822;28;20417;-70
2023/08/24 06:30:22;;;;;;;0.00;0.00;;;17.50;85.10;;;;;;5046875;28;20041;-69
2023/08/24 06:33:13;;;;;;;0.00;0.00;;;17.50;85.20;;;;;;5042770;28;20049;-69
2023/08/24 06:35:41;;;;;;;0.00;0.00;;;17.50;85.30;;;;;;5041817;28;20077;-69
2023/08/24 06:38:26;;;;;;;0.00;0.00;;;17.60;85.00;;;;;;5039430;28;20072;-69
2023/08/24 06:40:52;;;;;;;0.00;0.00;;;17.60;85.50;;;;;;5046338;28;20065;-69
2023/08/24 06:43:20;;;;;;;0.00;0.00;;;17.70;85.30;;;;;;5034898;28;20043;-68
2023/08/24 06:45:49;;;;;;;0.00;0.00;;;17.80;85.20;;;;;;5041179;28;20036;-66
2023/08/24 06:48:14;;;;;;;0.00;0.00;;;17.80;85.50;;;;;;5034685;28;20120;-67
2023/08/24 06:50:40;;;;;;;0.00;0.00;;;17.90;85.30;;;;;;5041780;28;20513;-67
2023/08/24 06:53:09;;;;;;;0.00;0.00;;;18.00;85.20;;;;;;5039519;28;20041;-67
2023/08/24 06:55:36;;;;;;;0.00;0.00;;;18.10;85.40;;;;;;5030581;28;20049;-68
2023/08/24 06:58:04;;;;;;;0.00;0.00;;;18.10;85.20;;;;;;5030584;28;20417;-70
2023/08/24 07:00:31;;;;;;;0.00;0.00;;;18.10;85.00;;;;;;5046836;28;20045;-68
2023/08/24 07:02:57;;;;;;;0.00;0.00;;;18.20;85.30;;;;;;5048126;28;20068;-68
2023/08/24 07:05:26;;;;;;;0.00;0.00;;;18.30;85.30;;;;;;5030964;23;20056;-69
2023/08/24 07:07:58;;;;;;;0.00;0.00;;;18.30;85.00;;;;;;5035324;28;20113;-68
2023/08/24 07:10:23;;;;;;;0.00;0.00;;;18.30;84.60;;;;;;5050948;28;20053;-68
2023/08/24 07:12:52;;;;;;;0.00;0.00;;;18.40;84.60;;;;;;5029935;28;20417;-67
2023/08/24 07:15:20;;;;;;;0.00;0.00;;;18.40;84.30;;;;;;5037763;28;20053;-67
2023/08/24 07:17:46;;;;;;;0.20;0.20;;;18.50;84.10;;;;;;5033044;28;20401;-67
2023/08/24 07:20:18;;;;;;;0.00;0.00;;;18.60;83.90;;;;;;5034655;28;20053;-68
2023/08/24 07:22:43;;;;;;;0.00;0.00;;;18.60;83.70;;;;;;5031015;28;20037;-67
2023/08/24 07:25:11;;;;;;;0.00;0.00;;;18.60;83.50;;;;;;5031701;28;20041;-67
2023/08/24 07:27:42;;;;;;;0.00;0.00;;;18.80;83.40;;;;;;5017306;28;20047;-68
2023/08/24 07:31:00;;;;;;;0.00;0.00;;;18.80;83.20;;;;;;5037201;28;20573;-69
2023/08/24 07:33:32;;;;;;;0.00;0.00;;;18.80;83.10;;;;;;5028370;28;20061;-68
2023/08/24 07:35:57;;;;;;;0.00;0.00;;;18.90;83.00;;;;;;5034266;28;20076;-69
2023/08/24 07:38:23;;;;;;;0.00;0.00;;;19.20;83.40;;;;;;5036324;28;20045;-69
2023/08/24 07:40:49;;;;;;;0.00;0.00;;;19.50;83.20;;;;;;5039087;28;20060;-69
2023/08/24 07:43:14;;;;;;;0.00;0.00;;;19.80;82.80;;;;;;5033553;28;20089;-70
2023/08/24 07:45:40;;;;;;;0.00;0.00;;;20.10;81.80;;;;;;5034536;28;20045;-69
2023/08/24 07:48:42;;;;;;;0.00;0.00;;;20.20;81.20;;;;;;5039743;28;20045;-68
2023/08/24 07:51:47;;;;;;;0.00;0.00;;;20.40;80.70;;;;;;5035060;28;20056;-68
2023/08/24 07:54:12;;;;;;;0.00;0.00;;;20.50;80.20;;;;;;5032444;28;20056;-68
2023/08/24 07:56:42;;;;;;;0.00;0.00;;;20.60;79.90;;;;;;5030642;28;20045;-68
2023/08/24 07:59:08;;;;;;;0.00;0.00;;;20.80;79.80;;;;;;5037617;28;20044;-69
2023/08/24 08:01:36;;;;;;;0.00;0.00;;;20.90;79.70;;;;;;5037858;28;20049;-69
2023/08/24 08:04:02;;;;;;;0.00;0.00;;;21.00;79.50;;;;;;5033370;28;20033;-69
2023/08/24 08:06:27;;;;;;;0.00;0.00;;;21.10;79.30;;;;;;5036722;28;20663;-69
2023/08/24 08:08:53;;;;;;;0.00;0.00;;;21.10;79.30;;;;;;5030917;28;20087;-70
2023/08/24 08:11:19;;;;;;;0.00;0.00;;;21.10;79.20;;;;;;5040613;28;20060;-70
2023/08/24 08:13:45;;;;;;;0.00;0.00;;;21.20;79.20;;;;;;5034308;28;20044;-70
2023/08/24 08:16:10;;;;;;;0.00;0.00;;;21.30;79.20;;;;;;5035147;28;20053;-70
2023/08/24 08:18:38;;;;;;;0.00;0.00;;;21.40;79.20;;;;;;5035926;28;20048;-70
2023/08/24 08:21:14;;;;;;;0.00;0.00;;;21.30;79.00;;;;;;5033016;28;20045;-70
2023/08/24 08:23:40;;;;;;;0.00;0.00;;;21.40;79.10;;;;;;5038142;28;20045;-70
2023/08/24 08:26:07;;;;;;;0.00;0.00;;;21.50;79.10;;;;;;5049294;28;20044;-69
2023/08/24 08:28:34;;;;;;;0.00;0.00;;;21.50;79.00;;;;;;5049559;28;20049;-66
2023/08/24 08:31:03;;;;;;;0.00;0.00;;;21.50;79.10;;;;;;5049256;28;20150;-67
2023/08/24 08:33:40;;;;;;;0.00;0.00;;;21.60;79.30;;;;;;5043766;28;20073;-68
2023/08/24 08:36:11;;;;;;;0.00;0.00;;;21.60;79.50;;;;;;5027950;28;20044;-69
2023/08/24 08:38:55;;;;;;;0.00;0.00;;;21.50;79.30;;;;;;5027031;28;20061;-68
2023/08/24 08:41:40;;;;;;;0.00;0.00;;;21.50;79.50;;;;;;5028299;28;20079;-68
2023/08/24 08:44:25;;;;;;;1.27;0.52;;;21.50;79.60;;;;;;5027635;28;20115;-70
2023/08/24 08:47:08;;;;;;;0.00;0.00;;;21.50;79.50;;;;;;5028251;28;20045;-69
2023/08/24 08:49:35;;;;;;;0.05;0.03;;;21.50;79.40;;;;;;5028545;28;20042;-67
2023/08/24 08:52:05;;;;;;;0.00;0.00;;;21.50;79.30;;;;;;5027702;28;20049;-69
2023/08/24 08:54:33;;;;;;;0.25;0.25;;;21.50;79.40;;;;;;5028432;28;20081;-68
2023/08/24 08:57:03;;;;;;;0.00;0.00;;;21.40;79.10;;;;;;5027580;28;20179;-69
2023/08/24 08:59:30;;;;;;;0.00;0.00;;;21.50;79.40;;;;;;5027749;28;20417;-69
2023/08/24 09:01:57;;;;;;;0.00;0.00;;;21.50;79.50;;;;;;5028013;28;20441;-69
2023/08/24 09:04:24;;;;;;;0.00;0.00;;;21.40;79.40;;;;;;5028284;28;20083;-69
2023/08/24 09:06:50;;;;;;;0.00;0.00;;;21.40;79.50;;;;;;5028635;28;20076;-69
2023/08/24 09:09:19;;;;;;;0.00;0.00;;;21.40;79.40;;;;;;5028868;28;20100;-69
2023/08/24 09:11:57;;;;;;;0.00;0.00;;;21.50;79.60;;;;;;5031967;28;20034;-67
2023/08/24 09:14:28;;;;;;;0.00;0.00;;;21.50;79.60;;;;;;5032233;28;20049;-68
2023/08/24 09:17:00;;;;;;;;;;;21.60;79.50;;;;;;5032522;28;20053;-69
2023/08/24 09:19:35;;;;;;;0.00;0.00;;;21.50;79.40;;;;;;5043897;28;20293;-67
2023/08/24 09:22:02;;;;;;;0.00;0.00;;;21.50;79.30;;;;;;5050462;28;20029;-67
2023/08/24 09:24:35;;;;;;;0.00;0.00;;;21.60;79.30;;;;;;5051916;28;20045;-68
2023/08/24 09:27:15;;;;;;;0.00;0.00;;;21.60;79.20;;;;;;5050135;28;20073;-67
2023/08/24 09:29:40;;;;;;;0.00;0.00;;;21.60;79.20;;;;;;5052525;28;20069;-67
2023/08/24 09:32:08;;;;;;;0.00;0.00;;;21.50;79.20;;;;;;5052086;28;20073;-68
2023/08/24 09:34:36;;;;;;;0.00;0.00;;;21.50;79.20;;;;;;5051746;28;20049;-67
2023/08/24 09:37:04;;;;;;;0.00;0.00;;;21.40;79.20;;;;;;5050991;28;20997;-68
2023/08/24 09:39:32;;;;;;;0.00;0.00;;;21.50;79.40;;;;;;5052812;28;20052;-68
2023/08/24 09:42:04;;;;;;;0.00;0.00;;;21.40;79.50;;;;;;5052344;28;20048;-68
2023/08/24 09:44:30;;;;;;;0.22;0.22;;;21.40;79.60;;;;;;5051189;28;20040;-68
2023/08/24 09:46:55;;;;;;;0.00;0.00;;;21.50;79.60;;;;;;5034701;28;20055;-68
2023/08/24 09:49:21;;;;;;;0.00;0.00;;;21.40;79.70;;;;;;5050614;28;20052;-68
2023/08/24 09:51:48;;;;;;;0.00;0.00;;;21.40;79.80;;;;;;5052041;28;20052;-68
2023/08/24 09:54:16;;;;;;;0.00;0.00;;;21.30;79.90;;;;;;5052118;28;20145;-68
2023/08/24 09:56:47;;;;;;;0.00;0.00;;;21.30;80.10;;;;;;5049968;28;20536;-67
2023/08/24 09:59:17;;;;;;;0.00;0.00;;;21.30;80.10;;;;;;5037436;23;20057;-67
2023/08/24 10:01:46;;;;;;;0.00;0.00;;;21.30;80.20;;;;;;5042660;28;20052;-68
2023/08/24 10:04:14;;;;;;;0.00;0.00;;;21.20;80.30;;;;;;5032445;28;20048;-68
2023/08/24 10:06:44;;;;;;;0.00;0.00;;;21.20;80.50;;;;;;5030694;28;20041;-68
2023/08/24 10:09:22;;;;;;;1.55;0.75;;;21.20;80.70;;;;;;5029234;28;20080;-68
2023/08/24 10:12:00;;;;;;;0.00;0.00;;;21.20;80.80;;;;;;5032749;28;20059;-72
2023/08/24 10:14:34;;;;;;;0.00;0.00;;;21.10;80.90;;;;;;5021281;28;20060;-70
2023/08/24 10:17:08;;;;;;;0.00;0.00;;;21.10;81.20;;;;;;5039860;28;20044;-71
2023/08/24 10:19:34;;;;;;;0.40;0.40;;;21.10;81.70;;;;;;5048943;28;20041;-71
2023/08/24 10:22:05;;;;;;;0.00;0.00;;;21.10;81.60;;;;;;5045116;28;20456;-71
2023/08/24 10:25:03;;;;;;;0.00;0.00;;;21.10;81.80;;;;;;5029156;28;21135;-70
2023/08/24 10:27:29;;;;;;;0.00;0.00;;;21.10;81.90;;;;;;5021493;28;20072;-71
2023/08/24 10:29:56;;;;;;;0.00;0.00;;;21.10;82.20;;;;;;5027546;28;20045;-71
2023/08/24 10:32:31;;;;;;;0.00;0.00;;;21.10;82.30;;;;;;5029704;28;20033;-71
2023/08/24 10:35:15;;;;;;;0.00;0.00;;;21.10;82.10;;;;;;5027779;28;20045;-69
2023/08/24 10:38:00;;;;;;;0.00;0.00;;;21.20;82.30;;;;;;5029981;28;20052;-70
2023/08/24 10:40:53;;;;;;;0.00;0.00;;;21.10;82.20;;;;;;5025507;28;20141;-69
2023/08/24 10:47:30;;;;;;;0.00;0.00;;;21.10;82.60;;;;;;5015169;28;20169;-69
2023/08/24 10:50:16;;;;;;;0.00;0.00;;;21.10;82.80;;;;;;5015513;28;20049;-68
2023/08/24 10:53:10;;;;;;;0.00;0.00;;;21.10;83.00;;;;;;5025517;28;20054;-68
2023/08/24 10:55:40;;;;;;;0.00;0.00;;;21.10;83.30;;;;;;5009887;28;20054;-68
2023/08/24 10:58:17;;;;;;;0.00;0.00;;;21.10;83.30;;;;;;5021362;28;20517;-68
2023/08/24 11:00:49;;;;;;;0.00;0.00;;;21.10;83.50;;;;;;5003325;28;20107;-68
2023/08/24 11:03:32;;;;;;;0.00;0.00;;;21.10;83.60;;;;;;5008216;28;20709;-69
2023/08/24 11:09:13;;;;;;;0.00;0.00;;;21.00;83.80;;;;;;5021027;28;20058;-69
2023/08/24 11:12:07;;;;;;;0.00;0.00;;;21.10;83.90;;;;;;5013641;28;20040;-69
2023/08/24 11:15:09;;;;;;;0.00;0.00;;;21.10;84.00;;;;;;5024251;28;20041;-69
2023/08/24 11:18:23;;;;;;;0.00;0.00;;;21.10;84.10;;;;;;5027142;28;20057;-68
2023/08/24 11:21:16;;;;;;;0.00;0.00;;;21.10;84.30;;;;;;5009200;28;20045;-68
2023/08/24 11:24:07;;;;;;;0.00;0.00;;;21.10;84.30;;;;;;5023872;28;20107;-69
2023/08/24 11:26:34;;;;;;;0.00;0.00;;;21.10;84.50;;;;;;5019504;28;20050;-69
2023/08/24 11:29:05;;;;;;;0.00;0.00;;;21.10;84.60;;;;;;5019946;28;20136;-68
2023/08/24 11:31:37;;;;;;;0.00;0.00;;;21.10;84.70;;;;;;5027234;28;20742;-69
2023/08/24 11:34:04;;;;;;;0.00;0.00;;;21.20;85.00;;;;;;5019756;28;20121;-69
2023/08/24 11:36:48;;;;;;;0.00;0.00;;;21.20;85.10;;;;;;5025142;28;20053;-69
2023/08/24 11:39:19;;;;;;;0.00;0.00;;;21.20;85.10;;;;;;5027811;28;20130;-69
2023/08/24 11:42:09;;;;;;;0.00;0.00;;;21.10;85.20;;;;;;5025574;28;20048;-69
2023/08/24 11:44:48;;;;;;;0.00;0.00;;;21.20;85.40;;;;;;5022864;28;20052;-69
2023/08/24 11:47:14;;;;;;;0.00;0.00;;;21.10;85.30;;;;;;5044214;28;20045;-68
2023/08/24 11:49:41;;;;;;;0.00;0.00;;;21.10;85.40;;;;;;5029808;28;20038;-69
2023/08/24 11:52:08;;;;;;;0.00;0.00;;;21.10;85.30;;;;;;5027917;28;20049;-68
2023/08/24 11:54:33;;;;;;;0.00;0.00;;;21.10;85.30;;;;;;5027333;28;20045;-68
2023/08/24 11:57:08;;;;;;;0.00;0.00;;;21.10;85.50;;;;;;5030937;28;20034;-69
2023/08/24 11:59:57;;;;;;;0.00;0.00;;;21.10;85.70;;;;;;5025633;28;20131;-68
2023/08/24 12:02:41;;;;;;;0.00;0.00;;;21.10;86.00;;;;;;5023694;28;21304;-68
2023/08/24 12:05:36;;;;;;;0.00;0.00;;;21.10;86.10;;;;;;5013940;28;20048;-70
2023/08/24 12:08:02;;;;;;;0.00;0.00;;;21.10;86.10;;;;;;5026795;28;20481;-70
2023/08/24 12:10:27;;;;;;;0.00;0.00;;;21.10;86.00;;;;;;5026912;28;20084;-70
2023/08/24 12:13:06;;;;;;;0.20;0.20;;;21.10;86.10;;;;;;5026765;28;20103;-78
2023/08/24 12:15:36;;;;;;;0.00;0.00;;;21.10;86.00;;;;;;5026865;28;20061;-70
2023/08/24 12:18:13;;;;;;;0.00;0.00;;;21.10;85.90;;;;;;5026958;28;20041;-71
2023/08/24 12:20:40;;;;;;;0.00;0.00;;;21.10;86.20;;;;;;5047808;28;20083;-70
2023/08/24 12:23:07;;;;;;;0.00;0.00;;;21.10;86.20;;;;;;5047196;28;20463;-70
2023/08/24 12:25:40;;;;;;;0.00;0.00;;;21.10;86.20;;;;;;5048097;28;20052;-70
2023/08/24 12:28:13;;;;;;;0.00;0.00;;;21.10;86.20;;;;;;5047709;28;20041;-71
2023/08/24 12:31:00;;;;;;;0.00;0.00;;;21.10;86.40;;;;;;5045532;28;20529;-71
2023/08/24 12:33:27;;;;;;;0.00;0.00;;;21.10;87.00;;;;;;5026905;28;20500;-71
2023/08/24 12:35:55;;;;;;;0.00;0.00;;;21.10;87.00;;;;;;5027636;28;20126;-70
2023/08/24 12:38:21;;;;;;;0.00;0.00;;;21.10;86.90;;;;;;5021230;28;20056;-70
2023/08/24 12:40:47;;;;;;;0.00;0.00;;;21.10;87.00;;;;;;5009539;28;20152;-70
2023/08/24 12:43:12;;;;;;;0.20;0.20;;;21.10;87.00;;;;;;5025385;28;20191;-70
2023/08/24 12:45:39;;;;;;;0.00;0.00;;;21.10;87.10;;;;;;5029136;28;20048;-80
2023/08/24 12:48:06;;;;;;;0.10;0.10;;;21.10;86.60;;;;;;5028105;28;20043;-77
2023/08/24 12:50:33;;;;;;;0.00;0.00;;;20.90;86.80;;;;;;5028120;28;20091;-70
2023/08/24 12:53:00;;;;;;;0.00;0.00;;;20.80;86.90;;;;;;5028264;28;20684;-70
2023/08/24 12:55:28;;;;;;;0.10;0.10;;;20.70;86.90;;;;;;5029243;28;20053;-70
2023/08/24 12:57:54;;;;;;;0.00;0.00;;;20.60;87.30;;;;;;5028570;28;20057;-70
2023/08/24 13:00:20;;;;;;;0.00;0.00;;;20.60;87.30;;;;;;5029128;28;20055;-70
2023/08/24 13:02:46;;;;;;;0.00;0.00;;;20.60;87.10;;;;;;5028864;28;20091;-70
2023/08/24 13:05:14;;;;;;;1.08;0.55;;;20.60;87.10;;;;;;5025510;28;20050;-70
2023/08/24 13:07:40;;;;;;;0.00;0.00;;;20.60;87.40;;;;;;5015102;28;20531;-71
2023/08/24 13:10:06;;;;;;;0.00;0.00;;;20.60;87.50;;;;;;5028874;28;20465;-70
2023/08/24 13:12:34;;;;;;;0.00;0.00;;;20.60;87.80;;;;;;5029109;28;20048;-70
2023/08/24 13:14:59;;;;;;;0.00;0.00;;;20.70;87.90;;;;;;5028710;28;20068;-71
2023/08/24 13:17:25;;;;;;;0.00;0.00;;;20.80;87.90;;;;;;5028377;28;20505;-70
2023/08/24 13:19:51;;;;;;;4.10;0.47;;;20.80;88.10;;;;;;5027708;28;20103;-69
2023/08/24 13:22:16;;;;;;;0.00;0.00;;;20.80;88.20;;;;;;5027602;28;20410;-71